sensor_id;sensor_type;location;lat;lon;timestamp;P1;durP1;ratioP1;P2;durP2;ratioP2
69588;SDS011;56792;50.644;17.984;2022-12-07T00:02:03;16.60;;;8.70;;
69588;SDS011;56792;50.644;17.984;2022-12-07T00:04:36;14.30;;;8.40;;
69588;SDS011;56792;50.644;17.984;2022-12-07T00:07:08;11.40;;;6.90;;
69588;SDS011;56792;50.644;17.984;2022-12-07T00:09:40;16.60;;;8.40;;
69588;SDS011;56792;50.644;17.984;2022-12-07T00:12:13;16.50;;;8.60;;
69588;SDS011;56792;50.644;17.984;2022-12-07T00:14:45;13.00;;;7.30;;
69588;SDS011;56792;50.644;17.984;2022-12-07T00:17:18;14.40;;;6.80;;
69588;SDS011;56792;50.644;17.984;2022-12-07T00:19:50;11.90;;;5.50;;
69588;SDS011;56792;50.644;17.984;2022-12-07T00:22:23;16.60;;;7.80;;
69588;SDS011;56792;50.644;17.984;2022-12-07T00:24:55;13.30;;;7.80;;
69588;SDS011;56792;50.644;17.984;2022-12-07T00:27:28;15.10;;;8.80;;
69588;SDS011;56792;50.644;17.984;2022-12-07T00:30:00;13.70;;;7.70;;
69588;SDS011;56792;50.644;17.984;2022-12-07T00:32:33;13.60;;;7.20;;
69588;SDS011;56792;50.644;17.984;2022-12-07T00:35:06;14.70;;;8.00;;
69588;SDS011;56792;50.644;17.984;2022-12-07T00:37:39;13.70;;;7.60;;
69588;SDS011;56792;50.644;17.984;2022-12-07T00:40:13;11.90;;;6.40;;
69588;SDS011;56792;50.644;17.984;2022-12-07T00:42:45;12.30;;;7.10;;
69588;SDS011;56792;50.644;17.984;2022-12-07T00:45:17;12.50;;;6.90;;
69588;SDS011;56792;50.644;17.984;2022-12-07T00:47:50;13.20;;;7.30;;
69588;SDS011;56792;50.644;17.984;2022-12-07T00:50:22;17.40;;;7.70;;
69588;SDS011;56792;50.644;17.984;2022-12-07T00:52:54;13.90;;;7.70;;
69588;SDS011;56792;50.644;17.984;2022-12-07T00:55:26;16.40;;;8.30;;
69588;SDS011;56792;50.644;17.984;2022-12-07T00:58:02;12.90;;;7.40;;
69588;SDS011;56792;50.644;17.984;2022-12-07T01:00:37;10.90;;;6.40;;
69588;SDS011;56792;50.644;17.984;2022-12-07T01:03:12;13.80;;;7.00;;
69588;SDS011;56792;50.644;17.984;2022-12-07T01:05:52;15.00;;;7.50;;
69588;SDS011;56792;50.644;17.984;2022-12-07T01:08:26;13.00;;;6.30;;
69588;SDS011;56792;50.644;17.984;2022-12-07T01:11:04;13.10;;;6.60;;
69588;SDS011;56792;50.644;17.984;2022-12-07T01:13:37;12.90;;;7.40;;
69588;SDS011;56792;50.644;17.984;2022-12-07T01:16:12;15.20;;;7.90;;
69588;SDS011;56792;50.644;17.984;2022-12-07T01:18:48;13.90;;;6.90;;
69588;SDS011;56792;50.644;17.984;2022-12-07T01:21:23;11.40;;;6.30;;
69588;SDS011;56792;50.644;17.984;2022-12-07T01:23:58;13.40;;;6.90;;
69588;SDS011;56792;50.644;17.984;2022-12-07T01:26:30;13.20;;;7.70;;
69588;SDS011;56792;50.644;17.984;2022-12-07T01:29:03;12.90;;;6.70;;
69588;SDS011;56792;50.644;17.984;2022-12-07T01:31:35;11.30;;;6.80;;
69588;SDS011;56792;50.644;17.984;2022-12-07T01:34:07;11.90;;;6.60;;
69588;SDS011;56792;50.644;17.984;2022-12-07T01:36:40;10.30;;;6.40;;
69588;SDS011;56792;50.644;17.984;2022-12-07T01:39:12;11.40;;;6.00;;
69588;SDS011;56792;50.644;17.984;2022-12-07T01:41:44;11.20;;;6.30;;
69588;SDS011;56792;50.644;17.984;2022-12-07T01:44:20;12.80;;;6.50;;
69588;SDS011;56792;50.644;17.984;2022-12-07T01:46:55;13.90;;;7.00;;
69588;SDS011;56792;50.644;17.984;2022-12-07T01:49:31;11.00;;;6.40;;
69588;SDS011;56792;50.644;17.984;2022-12-07T01:52:13;12.90;;;6.70;;
69588;SDS011;56792;50.644;17.984;2022-12-07T01:54:51;10.50;;;5.70;;
69588;SDS011;56792;50.644;17.984;2022-12-07T01:57:26;7.90;;;5.00;;
69588;SDS011;56792;50.644;17.984;2022-12-07T01:59:59;12.30;;;6.70;;
69588;SDS011;56792;50.644;17.984;2022-12-07T02:02:45;9.90;;;5.40;;
69588;SDS011;56792;50.644;17.984;2022-12-07T02:05:21;9.50;;;6.20;;
69588;SDS011;56792;50.644;17.984;2022-12-07T02:07:56;9.70;;;5.10;;
69588;SDS011;56792;50.644;17.984;2022-12-07T02:10:31;11.90;;;6.00;;
69588;SDS011;56792;50.644;17.984;2022-12-07T02:13:06;8.70;;;5.00;;
69588;SDS011;56792;50.644;17.984;2022-12-07T02:15:50;8.00;;;5.20;;
69588;SDS011;56792;50.644;17.984;2022-12-07T02:18:52;9.50;;;5.00;;
69588;SDS011;56792;50.644;17.984;2022-12-07T02:21:40;7.70;;;4.70;;
69588;SDS011;56792;50.644;17.984;2022-12-07T02:24:50;10.10;;;5.00;;
69588;SDS011;56792;50.644;17.984;2022-12-07T02:27:47;9.10;;;5.40;;
69588;SDS011;56792;50.644;17.984;2022-12-07T02:30:28;8.30;;;4.80;;
69588;SDS011;56792;50.644;17.984;2022-12-07T02:33:07;10.50;;;5.00;;
69588;SDS011;56792;50.644;17.984;2022-12-07T02:35:46;10.60;;;5.90;;
69588;SDS011;56792;50.644;17.984;2022-12-07T02:38:29;8.90;;;4.80;;
69588;SDS011;56792;50.644;17.984;2022-12-07T02:41:12;10.10;;;5.50;;
69588;SDS011;56792;50.644;17.984;2022-12-07T02:43:52;9.40;;;4.90;;
69588;SDS011;56792;50.644;17.984;2022-12-07T02:46:32;9.70;;;4.80;;
69588;SDS011;56792;50.644;17.984;2022-12-07T02:49:08;9.50;;;4.90;;
69588;SDS011;56792;50.644;17.984;2022-12-07T02:51:43;10.40;;;5.10;;
69588;SDS011;56792;50.644;17.984;2022-12-07T02:54:17;9.40;;;5.00;;
69588;SDS011;56792;50.644;17.984;2022-12-07T02:56:53;9.10;;;4.70;;
69588;SDS011;56792;50.644;17.984;2022-12-07T02:59:41;10.50;;;5.30;;
69588;SDS011;56792;50.644;17.984;2022-12-07T03:02:28;9.00;;;4.90;;
69588;SDS011;56792;50.644;17.984;2022-12-07T03:05:15;9.00;;;5.00;;
69588;SDS011;56792;50.644;17.984;2022-12-07T03:08:02;10.00;;;5.00;;
69588;SDS011;56792;50.644;17.984;2022-12-07T03:10:51;11.20;;;5.50;;
69588;SDS011;56792;50.644;17.984;2022-12-07T03:13:33;8.70;;;4.50;;
69588;SDS011;56792;50.644;17.984;2022-12-07T03:16:14;10.00;;;4.90;;
69588;SDS011;56792;50.644;17.984;2022-12-07T03:18:50;9.40;;;4.70;;
69588;SDS011;56792;50.644;17.984;2022-12-07T03:21:29;10.00;;;5.50;;
69588;SDS011;56792;50.644;17.984;2022-12-07T03:24:09;8.90;;;5.30;;
69588;SDS011;56792;50.644;17.984;2022-12-07T03:26:47;9.90;;;5.50;;
69588;SDS011;56792;50.644;17.984;2022-12-07T03:29:26;10.00;;;5.20;;
69588;SDS011;56792;50.644;17.984;2022-12-07T03:32:08;10.70;;;6.00;;
69588;SDS011;56792;50.644;17.984;2022-12-07T03:34:48;8.90;;;5.20;;
69588;SDS011;56792;50.644;17.984;2022-12-07T03:37:31;11.30;;;7.00;;
69588;SDS011;56792;50.644;17.984;2022-12-07T03:40:11;9.50;;;5.10;;
69588;SDS011;56792;50.644;17.984;2022-12-07T03:42:46;8.50;;;4.70;;
69588;SDS011;56792;50.644;17.984;2022-12-07T03:45:20;9.00;;;4.70;;
69588;SDS011;56792;50.644;17.984;2022-12-07T03:48:05;8.40;;;4.70;;
69588;SDS011;56792;50.644;17.984;2022-12-07T03:50:50;8.90;;;4.90;;
69588;SDS011;56792;50.644;17.984;2022-12-07T03:53:29;8.70;;;4.90;;
69588;SDS011;56792;50.644;17.984;2022-12-07T03:56:07;8.50;;;4.50;;
69588;SDS011;56792;50.644;17.984;2022-12-07T03:58:41;8.20;;;4.40;;
69588;SDS011;56792;50.644;17.984;2022-12-07T04:01:14;7.70;;;4.50;;
69588;SDS011;56792;50.644;17.984;2022-12-07T04:03:47;8.20;;;4.10;;
69588;SDS011;56792;50.644;17.984;2022-12-07T04:06:19;7.80;;;4.40;;
69588;SDS011;56792;50.644;17.984;2022-12-07T04:08:55;9.70;;;4.70;;
69588;SDS011;56792;50.644;17.984;2022-12-07T04:11:28;7.70;;;4.00;;
69588;SDS011;56792;50.644;17.984;2022-12-07T04:14:01;8.60;;;4.50;;
69588;SDS011;56792;50.644;17.984;2022-12-07T04:16:49;8.10;;;4.40;;
69588;SDS011;56792;50.644;17.984;2022-12-07T04:19:24;7.80;;;4.30;;
69588;SDS011;56792;50.644;17.984;2022-12-07T04:21:58;9.80;;;4.40;;
69588;SDS011;56792;50.644;17.984;2022-12-07T04:24:31;7.10;;;3.90;;
69588;SDS011;56792;50.644;17.984;2022-12-07T04:27:04;6.60;;;3.70;;
69588;SDS011;56792;50.644;17.984;2022-12-07T04:29:37;6.80;;;3.40;;
69588;SDS011;56792;50.644;17.984;2022-12-07T04:32:09;6.20;;;3.70;;
69588;SDS011;56792;50.644;17.984;2022-12-07T04:34:41;7.00;;;3.10;;
69588;SDS011;56792;50.644;17.984;2022-12-07T04:37:14;5.80;;;2.80;;
69588;SDS011;56792;50.644;17.984;2022-12-07T04:39:46;5.60;;;3.00;;
69588;SDS011;56792;50.644;17.984;2022-12-07T04:42:18;4.00;;;2.40;;
69588;SDS011;56792;50.644;17.984;2022-12-07T04:44:51;5.30;;;2.80;;
69588;SDS011;56792;50.644;17.984;2022-12-07T04:47:23;3.90;;;2.00;;
69588;SDS011;56792;50.644;17.984;2022-12-07T04:49:55;4.30;;;2.00;;
69588;SDS011;56792;50.644;17.984;2022-12-07T04:52:28;4.70;;;2.40;;
69588;SDS011;56792;50.644;17.984;2022-12-07T04:55:00;6.90;;;3.70;;
69588;SDS011;56792;50.644;17.984;2022-12-07T04:57:33;5.50;;;3.60;;
69588;SDS011;56792;50.644;17.984;2022-12-07T05:00:07;6.00;;;3.50;;
69588;SDS011;56792;50.644;17.984;2022-12-07T05:02:41;5.10;;;2.60;;
69588;SDS011;56792;50.644;17.984;2022-12-07T05:05:14;4.90;;;2.30;;
69588;SDS011;56792;50.644;17.984;2022-12-07T05:07:47;4.80;;;2.30;;
69588;SDS011;56792;50.644;17.984;2022-12-07T05:10:19;4.70;;;2.40;;
69588;SDS011;56792;50.644;17.984;2022-12-07T05:12:52;4.50;;;2.20;;
69588;SDS011;56792;50.644;17.984;2022-12-07T05:15:25;3.60;;;2.00;;
69588;SDS011;56792;50.644;17.984;2022-12-07T05:17:58;4.70;;;2.70;;
69588;SDS011;56792;50.644;17.984;2022-12-07T05:20:32;4.20;;;2.30;;
69588;SDS011;56792;50.644;17.984;2022-12-07T05:23:04;5.30;;;3.30;;
69588;SDS011;56792;50.644;17.984;2022-12-07T05:25:36;4.90;;;2.90;;
69588;SDS011;56792;50.644;17.984;2022-12-07T05:28:09;4.80;;;2.60;;
69588;SDS011;56792;50.644;17.984;2022-12-07T05:30:41;5.20;;;3.10;;
69588;SDS011;56792;50.644;17.984;2022-12-07T05:33:13;5.90;;;2.70;;
69588;SDS011;56792;50.644;17.984;2022-12-07T05:35:45;4.60;;;2.50;;
69588;SDS011;56792;50.644;17.984;2022-12-07T05:38:18;5.50;;;2.90;;
69588;SDS011;56792;50.644;17.984;2022-12-07T05:40:50;7.90;;;3.10;;
69588;SDS011;56792;50.644;17.984;2022-12-07T05:43:23;6.70;;;3.50;;
69588;SDS011;56792;50.644;17.984;2022-12-07T05:45:55;6.00;;;2.60;;
69588;SDS011;56792;50.644;17.984;2022-12-07T05:48:28;6.50;;;3.10;;
69588;SDS011;56792;50.644;17.984;2022-12-07T05:51:00;7.40;;;3.20;;
69588;SDS011;56792;50.644;17.984;2022-12-07T05:53:32;8.20;;;3.90;;
69588;SDS011;56792;50.644;17.984;2022-12-07T05:56:05;6.30;;;3.70;;
69588;SDS011;56792;50.644;17.984;2022-12-07T05:58:38;5.30;;;3.20;;
69588;SDS011;56792;50.644;17.984;2022-12-07T06:01:28;6.10;;;2.90;;
69588;SDS011;56792;50.644;17.984;2022-12-07T06:04:00;5.10;;;2.80;;
69588;SDS011;56792;50.644;17.984;2022-12-07T06:06:33;5.10;;;2.90;;
69588;SDS011;56792;50.644;17.984;2022-12-07T06:09:05;5.10;;;3.20;;
69588;SDS011;56792;50.644;17.984;2022-12-07T06:11:38;5.20;;;3.00;;
69588;SDS011;56792;50.644;17.984;2022-12-07T06:14:36;6.60;;;3.10;;
69588;SDS011;56792;50.644;17.984;2022-12-07T06:17:09;7.50;;;3.50;;
69588;SDS011;56792;50.644;17.984;2022-12-07T06:19:42;5.50;;;2.50;;
69588;SDS011;56792;50.644;17.984;2022-12-07T06:22:15;6.80;;;3.00;;
69588;SDS011;56792;50.644;17.984;2022-12-07T06:24:48;4.90;;;2.40;;
69588;SDS011;56792;50.644;17.984;2022-12-07T06:27:21;5.10;;;2.40;;
69588;SDS011;56792;50.644;17.984;2022-12-07T06:29:53;5.50;;;2.70;;
69588;SDS011;56792;50.644;17.984;2022-12-07T06:32:26;4.40;;;2.20;;
69588;SDS011;56792;50.644;17.984;2022-12-07T06:35:00;5.90;;;2.70;;
69588;SDS011;56792;50.644;17.984;2022-12-07T06:37:32;6.60;;;2.30;;
69588;SDS011;56792;50.644;17.984;2022-12-07T06:40:07;4.20;;;2.50;;
69588;SDS011;56792;50.644;17.984;2022-12-07T06:42:40;4.60;;;1.90;;
69588;SDS011;56792;50.644;17.984;2022-12-07T06:45:13;4.70;;;1.90;;
69588;SDS011;56792;50.644;17.984;2022-12-07T06:47:46;5.90;;;2.60;;
69588;SDS011;56792;50.644;17.984;2022-12-07T06:50:19;6.70;;;2.60;;
69588;SDS011;56792;50.644;17.984;2022-12-07T06:52:52;5.70;;;2.40;;
69588;SDS011;56792;50.644;17.984;2022-12-07T06:55:24;5.70;;;1.90;;
69588;SDS011;56792;50.644;17.984;2022-12-07T06:57:57;4.30;;;2.30;;
69588;SDS011;56792;50.644;17.984;2022-12-07T07:00:30;5.10;;;2.70;;
69588;SDS011;56792;50.644;17.984;2022-12-07T07:03:03;4.30;;;2.30;;
69588;SDS011;56792;50.644;17.984;2022-12-07T07:05:36;4.80;;;2.50;;
69588;SDS011;56792;50.644;17.984;2022-12-07T07:08:09;3.60;;;2.20;;
69588;SDS011;56792;50.644;17.984;2022-12-07T07:10:43;3.90;;;2.10;;
69588;SDS011;56792;50.644;17.984;2022-12-07T07:13:16;4.30;;;2.80;;
69588;SDS011;56792;50.644;17.984;2022-12-07T07:15:49;4.00;;;2.70;;
69588;SDS011;56792;50.644;17.984;2022-12-07T07:18:22;4.00;;;3.00;;
69588;SDS011;56792;50.644;17.984;2022-12-07T07:20:56;4.50;;;3.30;;
69588;SDS011;56792;50.644;17.984;2022-12-07T07:23:29;6.70;;;4.30;;
69588;SDS011;56792;50.644;17.984;2022-12-07T07:26:02;7.70;;;5.00;;
69588;SDS011;56792;50.644;17.984;2022-12-07T07:28:35;6.10;;;4.50;;
69588;SDS011;56792;50.644;17.984;2022-12-07T07:31:09;7.00;;;4.10;;
69588;SDS011;56792;50.644;17.984;2022-12-07T07:33:43;6.00;;;3.90;;
69588;SDS011;56792;50.644;17.984;2022-12-07T07:36:17;7.40;;;4.10;;
69588;SDS011;56792;50.644;17.984;2022-12-07T07:38:49;14.00;;;6.80;;
69588;SDS011;56792;50.644;17.984;2022-12-07T07:41:21;13.20;;;6.30;;
69588;SDS011;56792;50.644;17.984;2022-12-07T07:43:54;16.50;;;7.60;;
69588;SDS011;56792;50.644;17.984;2022-12-07T07:46:26;15.90;;;6.20;;
69588;SDS011;56792;50.644;17.984;2022-12-07T07:48:59;9.30;;;4.60;;
69588;SDS011;56792;50.644;17.984;2022-12-07T07:51:31;9.30;;;4.40;;
69588;SDS011;56792;50.644;17.984;2022-12-07T07:54:04;8.90;;;4.80;;
69588;SDS011;56792;50.644;17.984;2022-12-07T07:56:36;7.20;;;4.80;;
69588;SDS011;56792;50.644;17.984;2022-12-07T07:59:08;7.50;;;4.40;;
69588;SDS011;56792;50.644;17.984;2022-12-07T08:01:41;7.00;;;4.50;;
69588;SDS011;56792;50.644;17.984;2022-12-07T08:04:13;7.40;;;3.90;;
69588;SDS011;56792;50.644;17.984;2022-12-07T08:06:45;6.10;;;3.80;;
69588;SDS011;56792;50.644;17.984;2022-12-07T08:09:17;9.60;;;4.00;;
69588;SDS011;56792;50.644;17.984;2022-12-07T08:11:50;6.60;;;3.30;;
69588;SDS011;56792;50.644;17.984;2022-12-07T08:14:22;6.20;;;2.90;;
69588;SDS011;56792;50.644;17.984;2022-12-07T08:16:56;5.40;;;3.40;;
69588;SDS011;56792;50.644;17.984;2022-12-07T08:19:28;6.00;;;3.10;;
69588;SDS011;56792;50.644;17.984;2022-12-07T08:22:00;5.30;;;2.80;;
69588;SDS011;56792;50.644;17.984;2022-12-07T08:24:34;4.70;;;2.70;;
69588;SDS011;56792;50.644;17.984;2022-12-07T08:27:06;6.60;;;3.40;;
69588;SDS011;56792;50.644;17.984;2022-12-07T08:29:39;6.80;;;4.30;;
69588;SDS011;56792;50.644;17.984;2022-12-07T08:32:11;7.70;;;3.40;;
69588;SDS011;56792;50.644;17.984;2022-12-07T08:34:43;7.70;;;4.30;;
69588;SDS011;56792;50.644;17.984;2022-12-07T08:37:16;7.20;;;3.90;;
69588;SDS011;56792;50.644;17.984;2022-12-07T08:39:48;9.30;;;4.40;;
69588;SDS011;56792;50.644;17.984;2022-12-07T08:42:20;7.40;;;4.10;;
69588;SDS011;56792;50.644;17.984;2022-12-07T08:44:56;8.60;;;3.60;;
69588;SDS011;56792;50.644;17.984;2022-12-07T08:47:28;7.80;;;4.20;;
69588;SDS011;56792;50.644;17.984;2022-12-07T08:50:03;6.90;;;3.80;;
69588;SDS011;56792;50.644;17.984;2022-12-07T08:52:37;6.70;;;3.60;;
69588;SDS011;56792;50.644;17.984;2022-12-07T08:55:11;6.70;;;4.70;;
69588;SDS011;56792;50.644;17.984;2022-12-07T08:57:44;7.10;;;3.80;;
69588;SDS011;56792;50.644;17.984;2022-12-07T09:00:18;7.00;;;4.30;;
69588;SDS011;56792;50.644;17.984;2022-12-07T09:02:50;4.90;;;3.20;;
69588;SDS011;56792;50.644;17.984;2022-12-07T09:05:23;5.90;;;3.50;;
69588;SDS011;56792;50.644;17.984;2022-12-07T09:07:59;6.20;;;3.40;;
69588;SDS011;56792;50.644;17.984;2022-12-07T09:10:32;6.20;;;3.20;;
69588;SDS011;56792;50.644;17.984;2022-12-07T09:13:04;8.50;;;4.50;;
69588;SDS011;56792;50.644;17.984;2022-12-07T09:15:36;7.60;;;4.20;;
69588;SDS011;56792;50.644;17.984;2022-12-07T09:18:08;8.40;;;4.30;;
69588;SDS011;56792;50.644;17.984;2022-12-07T09:20:41;6.80;;;4.10;;
69588;SDS011;56792;50.644;17.984;2022-12-07T09:23:13;6.90;;;3.90;;
69588;SDS011;56792;50.644;17.984;2022-12-07T09:25:45;6.90;;;4.30;;
69588;SDS011;56792;50.644;17.984;2022-12-07T09:28:18;7.70;;;3.70;;
69588;SDS011;56792;50.644;17.984;2022-12-07T09:30:50;7.50;;;4.30;;
69588;SDS011;56792;50.644;17.984;2022-12-07T09:33:23;8.20;;;4.80;;
69588;SDS011;56792;50.644;17.984;2022-12-07T09:35:55;10.70;;;5.50;;
69588;SDS011;56792;50.644;17.984;2022-12-07T09:38:27;12.70;;;6.90;;
69588;SDS011;56792;50.644;17.984;2022-12-07T09:41:06;6.90;;;3.80;;
69588;SDS011;56792;50.644;17.984;2022-12-07T09:43:40;25.30;;;14.50;;
69588;SDS011;56792;50.644;17.984;2022-12-07T09:46:16;46.60;;;22.40;;
69588;SDS011;56792;50.644;17.984;2022-12-07T09:48:51;12.40;;;5.90;;
69588;SDS011;56792;50.644;17.984;2022-12-07T09:51:25;16.00;;;7.60;;
69588;SDS011;56792;50.644;17.984;2022-12-07T09:53:59;26.30;;;14.50;;
69588;SDS011;56792;50.644;17.984;2022-12-07T09:56:32;12.00;;;6.50;;
69588;SDS011;56792;50.644;17.984;2022-12-07T09:59:04;7.50;;;4.50;;
69588;SDS011;56792;50.644;17.984;2022-12-07T10:01:43;6.50;;;4.00;;
69588;SDS011;56792;50.644;17.984;2022-12-07T10:04:19;6.90;;;4.40;;
69588;SDS011;56792;50.644;17.984;2022-12-07T10:06:53;6.30;;;4.00;;
69588;SDS011;56792;50.644;17.984;2022-12-07T10:09:25;7.60;;;5.10;;
69588;SDS011;56792;50.644;17.984;2022-12-07T10:12:06;11.90;;;7.70;;
69588;SDS011;56792;50.644;17.984;2022-12-07T10:14:53;8.80;;;6.50;;
69588;SDS011;56792;50.644;17.984;2022-12-07T10:17:37;6.10;;;4.10;;
69588;SDS011;56792;50.644;17.984;2022-12-07T10:20:18;6.70;;;3.90;;
69588;SDS011;56792;50.644;17.984;2022-12-07T10:23:00;6.90;;;4.60;;
69588;SDS011;56792;50.644;17.984;2022-12-07T10:25:35;8.50;;;4.90;;
69588;SDS011;56792;50.644;17.984;2022-12-07T10:28:16;7.00;;;4.50;;
69588;SDS011;56792;50.644;17.984;2022-12-07T10:30:55;10.00;;;4.80;;
69588;SDS011;56792;50.644;17.984;2022-12-07T10:33:36;7.10;;;3.80;;
69588;SDS011;56792;50.644;17.984;2022-12-07T10:36:21;7.70;;;4.50;;
69588;SDS011;56792;50.644;17.984;2022-12-07T10:39:01;5.30;;;3.50;;
69588;SDS011;56792;50.644;17.984;2022-12-07T10:41:54;8.00;;;4.40;;
69588;SDS011;56792;50.644;17.984;2022-12-07T10:44:28;7.60;;;4.30;;
69588;SDS011;56792;50.644;17.984;2022-12-07T10:47:12;8.70;;;4.10;;
69588;SDS011;56792;50.644;17.984;2022-12-07T10:53:22;10.40;;;7.10;;
69588;SDS011;56792;50.644;17.984;2022-12-07T10:56:35;7.30;;;4.50;;
69588;SDS011;56792;50.644;17.984;2022-12-07T10:59:37;9.80;;;4.80;;
69588;SDS011;56792;50.644;17.984;2022-12-07T11:02:29;8.20;;;4.70;;
69588;SDS011;56792;50.644;17.984;2022-12-07T11:05:19;5.50;;;3.30;;
69588;SDS011;56792;50.644;17.984;2022-12-07T11:08:03;6.50;;;4.30;;
69588;SDS011;56792;50.644;17.984;2022-12-07T11:10:47;6.60;;;4.10;;
69588;SDS011;56792;50.644;17.984;2022-12-07T11:13:32;8.40;;;5.20;;
69588;SDS011;56792;50.644;17.984;2022-12-07T11:16:23;7.00;;;4.50;;
69588;SDS011;56792;50.644;17.984;2022-12-07T11:22:23;8.70;;;4.50;;
69588;SDS011;56792;50.644;17.984;2022-12-07T11:25:17;10.30;;;5.10;;
69588;SDS011;56792;50.644;17.984;2022-12-07T11:28:06;7.30;;;4.60;;
69588;SDS011;56792;50.644;17.984;2022-12-07T11:30:54;7.70;;;5.00;;
69588;SDS011;56792;50.644;17.984;2022-12-07T11:33:37;7.10;;;5.50;;
69588;SDS011;56792;50.644;17.984;2022-12-07T11:36:29;9.60;;;5.20;;
69588;SDS011;56792;50.644;17.984;2022-12-07T11:39:14;8.80;;;5.50;;
69588;SDS011;56792;50.644;17.984;2022-12-07T11:41:54;8.20;;;4.40;;
69588;SDS011;56792;50.644;17.984;2022-12-07T11:44:39;7.20;;;4.30;;
69588;SDS011;56792;50.644;17.984;2022-12-07T11:47:27;6.90;;;3.30;;
69588;SDS011;56792;50.644;17.984;2022-12-07T11:50:26;5.80;;;3.90;;
69588;SDS011;56792;50.644;17.984;2022-12-07T11:53:05;5.80;;;3.40;;
69588;SDS011;56792;50.644;17.984;2022-12-07T11:55:49;6.10;;;3.40;;
69588;SDS011;56792;50.644;17.984;2022-12-07T11:58:42;8.30;;;4.80;;
69588;SDS011;56792;50.644;17.984;2022-12-07T12:01:29;7.10;;;5.20;;
69588;SDS011;56792;50.644;17.984;2022-12-07T12:04:22;7.10;;;5.10;;
69588;SDS011;56792;50.644;17.984;2022-12-07T12:07:00;6.40;;;5.60;;
69588;SDS011;56792;50.644;17.984;2022-12-07T12:09:41;6.00;;;4.80;;
69588;SDS011;56792;50.644;17.984;2022-12-07T12:12:42;4.60;;;3.10;;
69588;SDS011;56792;50.644;17.984;2022-12-07T12:15:33;5.60;;;3.40;;
69588;SDS011;56792;50.644;17.984;2022-12-07T12:18:31;7.50;;;4.70;;
69588;SDS011;56792;50.644;17.984;2022-12-07T12:21:19;7.40;;;4.10;;
69588;SDS011;56792;50.644;17.984;2022-12-07T12:24:00;9.10;;;4.40;;
69588;SDS011;56792;50.644;17.984;2022-12-07T12:26:38;8.50;;;4.10;;
69588;SDS011;56792;50.644;17.984;2022-12-07T12:29:27;6.10;;;3.90;;
69588;SDS011;56792;50.644;17.984;2022-12-07T12:32:15;5.10;;;3.10;;
69588;SDS011;56792;50.644;17.984;2022-12-07T12:35:21;6.20;;;3.70;;
69588;SDS011;56792;50.644;17.984;2022-12-07T12:38:29;6.00;;;4.00;;
69588;SDS011;56792;50.644;17.984;2022-12-07T12:41:03;5.90;;;3.90;;
69588;SDS011;56792;50.644;17.984;2022-12-07T12:43:50;5.70;;;3.70;;
69588;SDS011;56792;50.644;17.984;2022-12-07T12:50:19;6.10;;;4.10;;
69588;SDS011;56792;50.644;17.984;2022-12-07T12:53:15;7.20;;;5.20;;
69588;SDS011;56792;50.644;17.984;2022-12-07T12:56:23;5.40;;;4.00;;
69588;SDS011;56792;50.644;17.984;2022-12-07T12:59:26;5.90;;;3.80;;
69588;SDS011;56792;50.644;17.984;2022-12-07T13:02:22;5.60;;;3.90;;
69588;SDS011;56792;50.644;17.984;2022-12-07T13:05:00;8.30;;;5.10;;
69588;SDS011;56792;50.644;17.984;2022-12-07T13:07:59;8.30;;;5.30;;
69588;SDS011;56792;50.644;17.984;2022-12-07T13:10:46;9.80;;;5.50;;
69588;SDS011;56792;50.644;17.984;2022-12-07T13:13:34;7.20;;;4.70;;
69588;SDS011;56792;50.644;17.984;2022-12-07T13:23:01;5.90;;;4.00;;
69588;SDS011;56792;50.644;17.984;2022-12-07T13:25:38;6.60;;;4.50;;
69588;SDS011;56792;50.644;17.984;2022-12-07T13:28:20;10.30;;;6.10;;
69588;SDS011;56792;50.644;17.984;2022-12-07T13:31:09;7.00;;;4.90;;
69588;SDS011;56792;50.644;17.984;2022-12-07T13:33:50;6.00;;;4.10;;
69588;SDS011;56792;50.644;17.984;2022-12-07T13:36:26;7.60;;;5.20;;
69588;SDS011;56792;50.644;17.984;2022-12-07T13:39:20;6.90;;;5.10;;
69588;SDS011;56792;50.644;17.984;2022-12-07T13:41:58;6.90;;;3.90;;
69588;SDS011;56792;50.644;17.984;2022-12-07T13:44:41;6.50;;;4.30;;
69588;SDS011;56792;50.644;17.984;2022-12-07T13:47:20;7.10;;;4.30;;
69588;SDS011;56792;50.644;17.984;2022-12-07T13:49:59;10.00;;;6.50;;
69588;SDS011;56792;50.644;17.984;2022-12-07T13:52:32;8.80;;;6.30;;
69588;SDS011;56792;50.644;17.984;2022-12-07T13:55:16;11.70;;;7.70;;
69588;SDS011;56792;50.644;17.984;2022-12-07T13:57:52;10.10;;;6.60;;
69588;SDS011;56792;50.644;17.984;2022-12-07T14:00:27;10.00;;;7.50;;
69588;SDS011;56792;50.644;17.984;2022-12-07T14:03:02;10.00;;;7.30;;
69588;SDS011;56792;50.644;17.984;2022-12-07T14:06:05;11.80;;;7.40;;
69588;SDS011;56792;50.644;17.984;2022-12-07T14:08:51;12.20;;;8.60;;
69588;SDS011;56792;50.644;17.984;2022-12-07T14:11:39;15.60;;;6.90;;
69588;SDS011;56792;50.644;17.984;2022-12-07T14:14:15;11.50;;;6.00;;
69588;SDS011;56792;50.644;17.984;2022-12-07T14:17:00;7.30;;;4.20;;
69588;SDS011;56792;50.644;17.984;2022-12-07T14:19:48;8.50;;;4.60;;
69588;SDS011;56792;50.644;17.984;2022-12-07T14:22:34;6.40;;;3.90;;
69588;SDS011;56792;50.644;17.984;2022-12-07T14:25:19;8.40;;;5.30;;
69588;SDS011;56792;50.644;17.984;2022-12-07T14:27:55;10.70;;;6.50;;
69588;SDS011;56792;50.644;17.984;2022-12-07T14:30:31;10.00;;;5.70;;
69588;SDS011;56792;50.644;17.984;2022-12-07T14:33:07;13.20;;;6.00;;
69588;SDS011;56792;50.644;17.984;2022-12-07T14:35:40;14.00;;;7.70;;
69588;SDS011;56792;50.644;17.984;2022-12-07T14:38:12;10.50;;;6.30;;
69588;SDS011;56792;50.644;17.984;2022-12-07T14:40:47;14.60;;;10.70;;
69588;SDS011;56792;50.644;17.984;2022-12-07T14:43:21;11.50;;;6.10;;
69588;SDS011;56792;50.644;17.984;2022-12-07T14:45:56;8.10;;;5.50;;
69588;SDS011;56792;50.644;17.984;2022-12-07T14:48:32;9.20;;;6.00;;
69588;SDS011;56792;50.644;17.984;2022-12-07T14:51:07;12.40;;;6.60;;
69588;SDS011;56792;50.644;17.984;2022-12-07T14:53:46;9.00;;;5.10;;
69588;SDS011;56792;50.644;17.984;2022-12-07T14:56:23;13.80;;;5.50;;
69588;SDS011;56792;50.644;17.984;2022-12-07T14:58:56;7.00;;;4.50;;
69588;SDS011;56792;50.644;17.984;2022-12-07T15:01:51;10.60;;;5.70;;
69588;SDS011;56792;50.644;17.984;2022-12-07T15:04:26;8.20;;;4.80;;
69588;SDS011;56792;50.644;17.984;2022-12-07T15:07:00;8.00;;;4.20;;
69588;SDS011;56792;50.644;17.984;2022-12-07T15:09:34;9.30;;;4.20;;
69588;SDS011;56792;50.644;17.984;2022-12-07T15:12:07;10.40;;;5.10;;
69588;SDS011;56792;50.644;17.984;2022-12-07T15:14:42;11.70;;;8.20;;
69588;SDS011;56792;50.644;17.984;2022-12-07T15:17:14;7.60;;;5.00;;
69588;SDS011;56792;50.644;17.984;2022-12-07T15:19:47;11.70;;;5.60;;
69588;SDS011;56792;50.644;17.984;2022-12-07T15:22:22;8.60;;;4.80;;
69588;SDS011;56792;50.644;17.984;2022-12-07T15:25:08;11.20;;;5.00;;
69588;SDS011;56792;50.644;17.984;2022-12-07T15:27:43;11.70;;;5.60;;
69588;SDS011;56792;50.644;17.984;2022-12-07T15:30:15;7.90;;;4.60;;
69588;SDS011;56792;50.644;17.984;2022-12-07T15:32:52;9.00;;;5.10;;
69588;SDS011;56792;50.644;17.984;2022-12-07T15:35:26;8.10;;;4.40;;
69588;SDS011;56792;50.644;17.984;2022-12-07T15:37:59;11.50;;;5.80;;
69588;SDS011;56792;50.644;17.984;2022-12-07T15:40:32;8.60;;;5.70;;
69588;SDS011;56792;50.644;17.984;2022-12-07T15:43:05;10.40;;;5.10;;
69588;SDS011;56792;50.644;17.984;2022-12-07T15:45:58;12.40;;;7.80;;
69588;SDS011;56792;50.644;17.984;2022-12-07T15:48:31;12.30;;;6.20;;
69588;SDS011;56792;50.644;17.984;2022-12-07T15:51:08;14.60;;;7.50;;